sensor_id;sensor_type;location;lat;lon;timestamp;P1;durP1;ratioP1;P2;durP2;ratioP2
12950;SDS011;6540;50.858;7.232;2023-02-12T00:01:14;21.13;;;13.27;;
12950;SDS011;6540;50.858;7.232;2023-02-12T00:03:40;21.27;;;12.07;;
12950;SDS011;6540;50.858;7.232;2023-02-12T00:06:06;23.23;;;13.93;;
12950;SDS011;6540;50.858;7.232;2023-02-12T00:08:32;21.33;;;12.57;;
12950;SDS011;6540;50.858;7.232;2023-02-12T00:10:58;24.60;;;13.57;;
12950;SDS011;6540;50.858;7.232;2023-02-12T00:13:23;21.20;;;13.77;;
12950;SDS011;6540;50.858;7.232;2023-02-12T00:15:49;22.67;;;13.80;;
12950;SDS011;6540;50.858;7.232;2023-02-12T00:18:14;21.63;;;13.90;;
12950;SDS011;6540;50.858;7.232;2023-02-12T00:20:40;22.50;;;14.77;;
12950;SDS011;6540;50.858;7.232;2023-02-12T00:23:05;25.40;;;13.40;;
12950;SDS011;6540;50.858;7.232;2023-02-12T00:25:31;24.27;;;14.13;;
12950;SDS011;6540;50.858;7.232;2023-02-12T00:27:57;26.00;;;13.97;;
12950;SDS011;6540;50.858;7.232;2023-02-12T00:30:22;26.93;;;13.43;;
12950;SDS011;6540;50.858;7.232;2023-02-12T00:32:48;22.03;;;14.27;;
12950;SDS011;6540;50.858;7.232;2023-02-12T00:35:13;26.27;;;13.37;;
12950;SDS011;6540;50.858;7.232;2023-02-12T00:37:39;23.70;;;13.10;;
12950;SDS011;6540;50.858;7.232;2023-02-12T00:40:04;25.37;;;12.90;;
12950;SDS011;6540;50.858;7.232;2023-02-12T00:42:31;22.80;;;12.50;;
12950;SDS011;6540;50.858;7.232;2023-02-12T00:44:56;21.47;;;13.30;;
12950;SDS011;6540;50.858;7.232;2023-02-12T00:47:21;18.87;;;12.33;;
12950;SDS011;6540;50.858;7.232;2023-02-12T00:49:47;21.23;;;13.33;;
12950;SDS011;6540;50.858;7.232;2023-02-12T00:52:12;18.00;;;12.37;;
12950;SDS011;6540;50.858;7.232;2023-02-12T00:54:37;22.30;;;12.90;;
12950;SDS011;6540;50.858;7.232;2023-02-12T00:57:03;24.73;;;13.10;;
12950;SDS011;6540;50.858;7.232;2023-02-12T00:59:29;23.80;;;13.17;;
12950;SDS011;6540;50.858;7.232;2023-02-12T01:01:54;21.67;;;13.33;;
12950;SDS011;6540;50.858;7.232;2023-02-12T01:04:20;22.57;;;13.17;;
12950;SDS011;6540;50.858;7.232;2023-02-12T01:06:46;25.57;;;13.97;;
12950;SDS011;6540;50.858;7.232;2023-02-12T01:09:12;21.07;;;13.37;;
12950;SDS011;6540;50.858;7.232;2023-02-12T01:11:38;22.10;;;12.90;;
12950;SDS011;6540;50.858;7.232;2023-02-12T01:14:03;21.90;;;13.33;;
12950;SDS011;6540;50.858;7.232;2023-02-12T01:16:29;21.87;;;13.30;;
12950;SDS011;6540;50.858;7.232;2023-02-12T01:18:57;23.33;;;14.17;;
12950;SDS011;6540;50.858;7.232;2023-02-12T01:21:24;27.90;;;14.67;;
12950;SDS011;6540;50.858;7.232;2023-02-12T01:23:52;20.23;;;13.60;;
12950;SDS011;6540;50.858;7.232;2023-02-12T01:26:18;21.17;;;13.10;;
12950;SDS011;6540;50.858;7.232;2023-02-12T01:28:47;24.07;;;13.57;;
12950;SDS011;6540;50.858;7.232;2023-02-12T01:31:15;19.33;;;12.10;;
12950;SDS011;6540;50.858;7.232;2023-02-12T01:33:42;25.77;;;13.13;;
12950;SDS011;6540;50.858;7.232;2023-02-12T01:36:11;21.70;;;13.47;;
12950;SDS011;6540;50.858;7.232;2023-02-12T01:38:36;21.90;;;13.03;;
12950;SDS011;6540;50.858;7.232;2023-02-12T01:41:06;23.97;;;14.10;;
12950;SDS011;6540;50.858;7.232;2023-02-12T01:43:36;20.17;;;12.93;;
12950;SDS011;6540;50.858;7.232;2023-02-12T01:46:02;23.37;;;13.60;;
12950;SDS011;6540;50.858;7.232;2023-02-12T01:48:30;21.20;;;14.40;;
12950;SDS011;6540;50.858;7.232;2023-02-12T01:50:58;21.27;;;13.73;;
12950;SDS011;6540;50.858;7.232;2023-02-12T01:53:28;23.87;;;14.50;;
12950;SDS011;6540;50.858;7.232;2023-02-12T01:55:57;26.57;;;13.17;;
12950;SDS011;6540;50.858;7.232;2023-02-12T01:58:24;21.10;;;12.33;;
12950;SDS011;6540;50.858;7.232;2023-02-12T02:00:51;20.97;;;12.43;;
12950;SDS011;6540;50.858;7.232;2023-02-12T02:03:17;22.20;;;12.13;;
12950;SDS011;6540;50.858;7.232;2023-02-12T02:05:49;17.47;;;11.37;;
12950;SDS011;6540;50.858;7.232;2023-02-12T02:08:27;21.20;;;12.03;;
12950;SDS011;6540;50.858;7.232;2023-02-12T02:10:53;23.40;;;12.83;;
12950;SDS011;6540;50.858;7.232;2023-02-12T02:13:18;18.90;;;12.47;;
12950;SDS011;6540;50.858;7.232;2023-02-12T02:16:06;22.90;;;12.97;;
12950;SDS011;6540;50.858;7.232;2023-02-12T02:18:52;24.67;;;13.23;;
12950;SDS011;6540;50.858;7.232;2023-02-12T02:32:13;20.37;;;12.73;;
12950;SDS011;6540;50.858;7.232;2023-02-12T02:34:54;25.33;;;12.53;;
12950;SDS011;6540;50.858;7.232;2023-02-12T02:37:30;23.03;;;12.33;;
12950;SDS011;6540;50.858;7.232;2023-02-12T02:42:54;19.37;;;10.77;;
12950;SDS011;6540;50.858;7.232;2023-02-12T02:45:27;20.17;;;12.03;;
12950;SDS011;6540;50.858;7.232;2023-02-12T02:48:09;22.47;;;11.67;;
12950;SDS011;6540;50.858;7.232;2023-02-12T02:50:41;18.97;;;10.70;;
12950;SDS011;6540;50.858;7.232;2023-02-12T02:53:15;17.53;;;11.93;;
12950;SDS011;6540;50.858;7.232;2023-02-12T02:55:46;20.97;;;11.33;;
12950;SDS011;6540;50.858;7.232;2023-02-12T02:58:16;22.67;;;12.77;;
12950;SDS011;6540;50.858;7.232;2023-02-12T03:00:50;18.97;;;10.93;;
12950;SDS011;6540;50.858;7.232;2023-02-12T03:03:19;14.63;;;10.17;;
12950;SDS011;6540;50.858;7.232;2023-02-12T03:05:51;18.97;;;11.17;;
12950;SDS011;6540;50.858;7.232;2023-02-12T03:08:22;19.67;;;11.73;;
12950;SDS011;6540;50.858;7.232;2023-02-12T03:10:53;19.20;;;10.53;;
12950;SDS011;6540;50.858;7.232;2023-02-12T03:13:25;18.87;;;11.47;;
12950;SDS011;6540;50.858;7.232;2023-02-12T03:15:58;17.27;;;11.20;;
12950;SDS011;6540;50.858;7.232;2023-02-12T03:18:33;17.20;;;11.13;;
12950;SDS011;6540;50.858;7.232;2023-02-12T03:21:07;25.73;;;11.80;;
12950;SDS011;6540;50.858;7.232;2023-02-12T03:23:38;19.00;;;11.37;;
12950;SDS011;6540;50.858;7.232;2023-02-12T03:26:19;17.83;;;11.63;;
12950;SDS011;6540;50.858;7.232;2023-02-12T03:28:49;23.80;;;12.97;;
12950;SDS011;6540;50.858;7.232;2023-02-12T03:42:07;18.80;;;12.77;;
12950;SDS011;6540;50.858;7.232;2023-02-12T03:44:57;20.60;;;11.53;;
12950;SDS011;6540;50.858;7.232;2023-02-12T03:47:45;21.80;;;11.80;;
12950;SDS011;6540;50.858;7.232;2023-02-12T03:50:20;19.70;;;11.90;;
12950;SDS011;6540;50.858;7.232;2023-02-12T03:53:03;19.10;;;11.13;;
12950;SDS011;6540;50.858;7.232;2023-02-12T03:55:29;18.83;;;11.93;;
12950;SDS011;6540;50.858;7.232;2023-02-12T03:57:59;24.93;;;13.27;;
12950;SDS011;6540;50.858;7.232;2023-02-12T04:00:27;22.67;;;12.10;;
12950;SDS011;6540;50.858;7.232;2023-02-12T04:02:53;19.40;;;11.87;;
12950;SDS011;6540;50.858;7.232;2023-02-12T04:05:24;18.43;;;12.43;;
12950;SDS011;6540;50.858;7.232;2023-02-12T04:07:52;20.90;;;11.27;;
12950;SDS011;6540;50.858;7.232;2023-02-12T04:10:21;19.03;;;11.83;;
12950;SDS011;6540;50.858;7.232;2023-02-12T04:18:47;16.30;;;11.37;;
12950;SDS011;6540;50.858;7.232;2023-02-12T04:32:36;17.37;;;10.20;;
12950;SDS011;6540;50.858;7.232;2023-02-12T04:35:22;17.03;;;10.23;;
12950;SDS011;6540;50.858;7.232;2023-02-12T04:40:43;20.87;;;11.47;;
12950;SDS011;6540;50.858;7.232;2023-02-12T04:43:09;16.10;;;11.20;;
12950;SDS011;6540;50.858;7.232;2023-02-12T04:45:35;17.37;;;10.77;;
12950;SDS011;6540;50.858;7.232;2023-02-12T04:48:02;16.03;;;9.90;;
12950;SDS011;6540;50.858;7.232;2023-02-12T04:50:33;16.90;;;10.60;;
12950;SDS011;6540;50.858;7.232;2023-02-12T04:53:03;17.50;;;10.57;;
12950;SDS011;6540;50.858;7.232;2023-02-12T04:55:28;19.97;;;11.13;;
12950;SDS011;6540;50.858;7.232;2023-02-12T04:57:54;16.30;;;10.80;;
12950;SDS011;6540;50.858;7.232;2023-02-12T05:00:19;17.57;;;11.00;;
12950;SDS011;6540;50.858;7.232;2023-02-12T05:02:45;18.93;;;11.63;;
12950;SDS011;6540;50.858;7.232;2023-02-12T05:05:10;16.73;;;11.40;;
12950;SDS011;6540;50.858;7.232;2023-02-12T05:07:35;19.20;;;11.73;;
12950;SDS011;6540;50.858;7.232;2023-02-12T05:10:01;19.50;;;10.73;;
12950;SDS011;6540;50.858;7.232;2023-02-12T05:12:27;19.70;;;11.20;;
12950;SDS011;6540;50.858;7.232;2023-02-12T05:14:52;18.60;;;11.33;;
12950;SDS011;6540;50.858;7.232;2023-02-12T05:17:20;17.37;;;11.37;;
12950;SDS011;6540;50.858;7.232;2023-02-12T05:19:46;18.23;;;10.93;;
12950;SDS011;6540;50.858;7.232;2023-02-12T05:22:12;18.77;;;11.20;;
12950;SDS011;6540;50.858;7.232;2023-02-12T05:24:37;15.87;;;11.23;;
12950;SDS011;6540;50.858;7.232;2023-02-12T05:27:02;15.20;;;11.17;;
12950;SDS011;6540;50.858;7.232;2023-02-12T05:29:28;19.80;;;12.57;;
12950;SDS011;6540;50.858;7.232;2023-02-12T05:31:53;23.13;;;11.87;;
12950;SDS011;6540;50.858;7.232;2023-02-12T05:34:19;18.83;;;12.17;;
12950;SDS011;6540;50.858;7.232;2023-02-12T05:36:44;21.57;;;13.27;;
12950;SDS011;6540;50.858;7.232;2023-02-12T05:39:09;21.57;;;11.70;;
12950;SDS011;6540;50.858;7.232;2023-02-12T05:41:35;17.83;;;11.80;;
12950;SDS011;6540;50.858;7.232;2023-02-12T05:44:03;22.70;;;12.90;;
12950;SDS011;6540;50.858;7.232;2023-02-12T05:46:29;17.50;;;11.63;;
12950;SDS011;6540;50.858;7.232;2023-02-12T05:48:55;18.60;;;11.63;;
12950;SDS011;6540;50.858;7.232;2023-02-12T05:51:21;22.17;;;12.77;;
12950;SDS011;6540;50.858;7.232;2023-02-12T05:53:48;22.77;;;12.17;;
12950;SDS011;6540;50.858;7.232;2023-02-12T05:56:22;19.70;;;11.90;;
12950;SDS011;6540;50.858;7.232;2023-02-12T05:58:56;19.80;;;12.13;;
12950;SDS011;6540;50.858;7.232;2023-02-12T06:01:45;20.97;;;12.07;;
12950;SDS011;6540;50.858;7.232;2023-02-12T06:04:14;21.60;;;13.13;;
12950;SDS011;6540;50.858;7.232;2023-02-12T06:06:42;17.97;;;11.97;;
12950;SDS011;6540;50.858;7.232;2023-02-12T06:09:08;22.33;;;13.13;;
12950;SDS011;6540;50.858;7.232;2023-02-12T06:11:34;22.33;;;13.40;;
12950;SDS011;6540;50.858;7.232;2023-02-12T06:14:01;21.00;;;12.17;;
12950;SDS011;6540;50.858;7.232;2023-02-12T06:16:31;22.27;;;12.20;;
12950;SDS011;6540;50.858;7.232;2023-02-12T06:19:00;18.70;;;12.80;;
12950;SDS011;6540;50.858;7.232;2023-02-12T06:21:26;19.47;;;13.03;;
12950;SDS011;6540;50.858;7.232;2023-02-12T06:23:52;23.93;;;13.60;;
12950;SDS011;6540;50.858;7.232;2023-02-12T06:26:18;20.10;;;12.63;;
12950;SDS011;6540;50.858;7.232;2023-02-12T06:28:46;23.87;;;12.80;;
12950;SDS011;6540;50.858;7.232;2023-02-12T06:31:23;29.80;;;14.23;;
12950;SDS011;6540;50.858;7.232;2023-02-12T06:33:57;23.70;;;12.03;;
12950;SDS011;6540;50.858;7.232;2023-02-12T06:36:25;23.10;;;14.03;;
12950;SDS011;6540;50.858;7.232;2023-02-12T06:38:51;21.93;;;13.73;;
12950;SDS011;6540;50.858;7.232;2023-02-12T06:41:17;25.17;;;13.90;;
12950;SDS011;6540;50.858;7.232;2023-02-12T06:43:45;19.70;;;12.93;;
12950;SDS011;6540;50.858;7.232;2023-02-12T06:46:11;21.80;;;13.10;;
12950;SDS011;6540;50.858;7.232;2023-02-12T06:48:36;25.97;;;14.03;;
12950;SDS011;6540;50.858;7.232;2023-02-12T06:51:03;20.97;;;12.13;;
12950;SDS011;6540;50.858;7.232;2023-02-12T06:53:36;22.00;;;14.37;;
12950;SDS011;6540;50.858;7.232;2023-02-12T06:56:02;22.90;;;13.03;;
12950;SDS011;6540;50.858;7.232;2023-02-12T06:58:29;21.30;;;13.67;;
12950;SDS011;6540;50.858;7.232;2023-02-12T07:00:55;22.83;;;13.13;;
12950;SDS011;6540;50.858;7.232;2023-02-12T07:03:21;25.93;;;14.03;;
12950;SDS011;6540;50.858;7.232;2023-02-12T07:05:46;23.03;;;13.40;;
12950;SDS011;6540;50.858;7.232;2023-02-12T07:08:12;21.73;;;14.17;;
12950;SDS011;6540;50.858;7.232;2023-02-12T07:10:38;23.67;;;14.53;;
12950;SDS011;6540;50.858;7.232;2023-02-12T07:13:03;22.73;;;13.80;;
12950;SDS011;6540;50.858;7.232;2023-02-12T07:15:29;25.03;;;13.67;;
12950;SDS011;6540;50.858;7.232;2023-02-12T07:17:55;25.33;;;13.87;;
12950;SDS011;6540;50.858;7.232;2023-02-12T07:20:20;30.00;;;15.20;;
12950;SDS011;6540;50.858;7.232;2023-02-12T07:22:45;28.83;;;14.70;;
12950;SDS011;6540;50.858;7.232;2023-02-12T07:25:11;23.53;;;13.03;;
12950;SDS011;6540;50.858;7.232;2023-02-12T07:27:36;22.83;;;14.10;;
12950;SDS011;6540;50.858;7.232;2023-02-12T07:30:02;23.43;;;13.93;;
12950;SDS011;6540;50.858;7.232;2023-02-12T07:32:30;26.43;;;14.50;;
12950;SDS011;6540;50.858;7.232;2023-02-12T07:34:56;26.67;;;15.33;;
12950;SDS011;6540;50.858;7.232;2023-02-12T07:37:22;29.73;;;15.60;;
12950;SDS011;6540;50.858;7.232;2023-02-12T07:39:47;26.53;;;15.57;;
12950;SDS011;6540;50.858;7.232;2023-02-12T07:42:13;25.83;;;14.40;;
12950;SDS011;6540;50.858;7.232;2023-02-12T07:44:39;30.50;;;14.77;;
12950;SDS011;6540;50.858;7.232;2023-02-12T07:47:04;27.03;;;16.03;;
12950;SDS011;6540;50.858;7.232;2023-02-12T07:49:30;31.30;;;15.97;;
12950;SDS011;6540;50.858;7.232;2023-02-12T07:51:55;29.87;;;15.03;;
12950;SDS011;6540;50.858;7.232;2023-02-12T07:54:21;32.53;;;18.13;;
12950;SDS011;6540;50.858;7.232;2023-02-12T07:56:46;26.73;;;15.83;;
12950;SDS011;6540;50.858;7.232;2023-02-12T07:59:13;33.93;;;17.03;;
12950;SDS011;6540;50.858;7.232;2023-02-12T08:01:42;31.27;;;16.50;;
12950;SDS011;6540;50.858;7.232;2023-02-12T08:04:11;23.00;;;15.20;;
12950;SDS011;6540;50.858;7.232;2023-02-12T08:06:39;30.43;;;16.80;;
12950;SDS011;6540;50.858;7.232;2023-02-12T08:09:08;29.03;;;17.77;;
12950;SDS011;6540;50.858;7.232;2023-02-12T08:11:36;30.20;;;16.70;;
12950;SDS011;6540;50.858;7.232;2023-02-12T08:14:03;32.10;;;15.80;;
12950;SDS011;6540;50.858;7.232;2023-02-12T08:16:29;30.27;;;17.67;;
12950;SDS011;6540;50.858;7.232;2023-02-12T08:18:55;27.60;;;16.43;;
12950;SDS011;6540;50.858;7.232;2023-02-12T08:21:23;29.47;;;17.20;;
12950;SDS011;6540;50.858;7.232;2023-02-12T08:23:50;33.93;;;16.90;;
12950;SDS011;6540;50.858;7.232;2023-02-12T08:26:22;30.60;;;16.80;;
12950;SDS011;6540;50.858;7.232;2023-02-12T08:29:03;32.70;;;17.57;;
12950;SDS011;6540;50.858;7.232;2023-02-12T08:31:34;35.30;;;18.43;;
12950;SDS011;6540;50.858;7.232;2023-02-12T08:34:04;33.87;;;15.87;;
12950;SDS011;6540;50.858;7.232;2023-02-12T08:36:37;26.20;;;16.43;;
12950;SDS011;6540;50.858;7.232;2023-02-12T08:39:04;27.50;;;18.90;;
12950;SDS011;6540;50.858;7.232;2023-02-12T08:41:30;34.30;;;18.33;;
12950;SDS011;6540;50.858;7.232;2023-02-12T08:43:57;34.13;;;18.60;;
12950;SDS011;6540;50.858;7.232;2023-02-12T08:46:25;32.80;;;18.10;;
12950;SDS011;6540;50.858;7.232;2023-02-12T08:48:52;33.53;;;19.17;;
12950;SDS011;6540;50.858;7.232;2023-02-12T08:51:20;33.27;;;19.50;;
12950;SDS011;6540;50.858;7.232;2023-02-12T08:53:53;31.27;;;18.50;;
12950;SDS011;6540;50.858;7.232;2023-02-12T08:56:20;37.20;;;18.63;;
12950;SDS011;6540;50.858;7.232;2023-02-12T08:58:46;34.40;;;19.40;;
12950;SDS011;6540;50.858;7.232;2023-02-12T09:01:14;35.03;;;19.00;;
12950;SDS011;6540;50.858;7.232;2023-02-12T09:03:42;34.80;;;20.07;;
12950;SDS011;6540;50.858;7.232;2023-02-12T09:06:08;41.47;;;20.50;;
12950;SDS011;6540;50.858;7.232;2023-02-12T09:08:34;37.23;;;20.17;;
12950;SDS011;6540;50.858;7.232;2023-02-12T09:11:07;37.73;;;20.07;;
12950;SDS011;6540;50.858;7.232;2023-02-12T09:13:35;31.87;;;19.87;;
12950;SDS011;6540;50.858;7.232;2023-02-12T09:16:01;31.70;;;19.03;;
12950;SDS011;6540;50.858;7.232;2023-02-12T09:18:29;33.00;;;19.13;;
12950;SDS011;6540;50.858;7.232;2023-02-12T09:20:59;35.47;;;20.93;;
12950;SDS011;6540;50.858;7.232;2023-02-12T09:23:25;37.33;;;19.70;;
12950;SDS011;6540;50.858;7.232;2023-02-12T09:25:51;33.73;;;19.63;;
12950;SDS011;6540;50.858;7.232;2023-02-12T09:28:16;42.37;;;20.33;;
12950;SDS011;6540;50.858;7.232;2023-02-12T09:30:41;36.67;;;21.97;;
12950;SDS011;6540;50.858;7.232;2023-02-12T09:33:08;40.77;;;22.73;;
12950;SDS011;6540;50.858;7.232;2023-02-12T09:35:35;41.87;;;24.27;;
12950;SDS011;6540;50.858;7.232;2023-02-12T09:38:02;38.33;;;21.33;;
12950;SDS011;6540;50.858;7.232;2023-02-12T09:40:37;39.43;;;21.77;;
12950;SDS011;6540;50.858;7.232;2023-02-12T09:46:09;45.17;;;23.57;;
12950;SDS011;6540;50.858;7.232;2023-02-12T09:51:29;35.87;;;20.77;;
12950;SDS011;6540;50.858;7.232;2023-02-12T09:54:00;44.37;;;23.10;;
12950;SDS011;6540;50.858;7.232;2023-02-12T09:56:29;45.57;;;23.30;;
12950;SDS011;6540;50.858;7.232;2023-02-12T09:58:58;43.27;;;22.37;;
12950;SDS011;6540;50.858;7.232;2023-02-12T10:01:27;39.63;;;22.93;;
12950;SDS011;6540;50.858;7.232;2023-02-12T10:03:53;44.93;;;23.40;;
12950;SDS011;6540;50.858;7.232;2023-02-12T10:06:20;45.40;;;23.97;;
12950;SDS011;6540;50.858;7.232;2023-02-12T10:22:09;47.40;;;24.03;;
12950;SDS011;6540;50.858;7.232;2023-02-12T10:27:48;35.57;;;21.17;;
12950;SDS011;6540;50.858;7.232;2023-02-12T10:33:06;40.13;;;22.03;;
12950;SDS011;6540;50.858;7.232;2023-02-12T10:35:39;46.57;;;23.03;;
12950;SDS011;6540;50.858;7.232;2023-02-12T10:38:24;39.60;;;23.10;;
12950;SDS011;6540;50.858;7.232;2023-02-12T10:40:55;39.63;;;23.10;;
12950;SDS011;6540;50.858;7.232;2023-02-12T10:43:22;37.20;;;22.07;;
12950;SDS011;6540;50.858;7.232;2023-02-12T10:45:48;39.13;;;20.77;;
12950;SDS011;6540;50.858;7.232;2023-02-12T10:50:56;33.30;;;19.67;;
12950;SDS011;6540;50.858;7.232;2023-02-12T10:53:35;38.83;;;18.93;;
12950;SDS011;6540;50.858;7.232;2023-02-12T10:58:33;35.93;;;19.50;;
12950;SDS011;6540;50.858;7.232;2023-02-12T11:00:59;35.90;;;19.77;;
12950;SDS011;6540;50.858;7.232;2023-02-12T11:03:28;51.93;;;21.40;;
12950;SDS011;6540;50.858;7.232;2023-02-12T11:06:07;36.53;;;20.67;;
12950;SDS011;6540;50.858;7.232;2023-02-12T11:08:36;36.23;;;18.47;;
12950;SDS011;6540;50.858;7.232;2023-02-12T11:11:26;33.17;;;19.33;;
12950;SDS011;6540;50.858;7.232;2023-02-12T11:16:53;34.20;;;18.40;;
12950;SDS011;6540;50.858;7.232;2023-02-12T11:19:25;33.63;;;18.30;;
12950;SDS011;6540;50.858;7.232;2023-02-12T11:22:03;38.17;;;20.03;;
12950;SDS011;6540;50.858;7.232;2023-02-12T11:24:34;34.23;;;17.63;;
12950;SDS011;6540;50.858;7.232;2023-02-12T11:27:10;29.57;;;18.43;;
12950;SDS011;6540;50.858;7.232;2023-02-12T11:29:39;32.63;;;18.63;;
12950;SDS011;6540;50.858;7.232;2023-02-12T11:32:05;33.93;;;19.03;;
12950;SDS011;6540;50.858;7.232;2023-02-12T11:34:32;36.33;;;16.43;;
12950;SDS011;6540;50.858;7.232;2023-02-12T11:36:59;29.17;;;16.27;;
12950;SDS011;6540;50.858;7.232;2023-02-12T11:39:33;31.97;;;16.43;;
12950;SDS011;6540;50.858;7.232;2023-02-12T11:44:41;32.27;;;16.97;;
12950;SDS011;6540;50.858;7.232;2023-02-12T11:50:14;27.47;;;16.37;;
12950;SDS011;6540;50.858;7.232;2023-02-12T11:52:48;28.23;;;16.43;;
12950;SDS011;6540;50.858;7.232;2023-02-12T11:55:20;27.93;;;16.27;;
12950;SDS011;6540;50.858;7.232;2023-02-12T11:57:48;30.27;;;15.43;;
12950;SDS011;6540;50.858;7.232;2023-02-12T12:00:29;24.70;;;15.23;;
12950;SDS011;6540;50.858;7.232;2023-02-12T12:05:50;27.07;;;14.67;;
12950;SDS011;6540;50.858;7.232;2023-02-12T12:08:35;26.73;;;14.83;;
12950;SDS011;6540;50.858;7.232;2023-02-12T12:11:11;27.07;;;14.87;;
12950;SDS011;6540;50.858;7.232;2023-02-12T12:13:46;28.40;;;15.13;;
12950;SDS011;6540;50.858;7.232;2023-02-12T12:16:29;26.27;;;14.97;;
12950;SDS011;6540;50.858;7.232;2023-02-12T12:19:21;24.57;;;14.43;;
12950;SDS011;6540;50.858;7.232;2023-02-12T12:28:05;26.43;;;13.37;;
12950;SDS011;6540;50.858;7.232;2023-02-12T12:36:27;23.03;;;13.93;;
12950;SDS011;6540;50.858;7.232;2023-02-12T13:01:54;18.90;;;11.37;;
12950;SDS011;6540;50.858;7.232;2023-02-12T13:12:32;17.93;;;10.53;;
12950;SDS011;6540;50.858;7.232;2023-02-12T13:25:49;20.53;;;12.73;;
12950;SDS011;6540;50.858;7.232;2023-02-12T13:28:23;25.03;;;11.80;;
12950;SDS011;6540;50.858;7.232;2023-02-12T13:30:57;17.07;;;10.47;;
12950;SDS011;6540;50.858;7.232;2023-02-12T13:33:28;17.93;;;10.63;;
12950;SDS011;6540;50.858;7.232;2023-02-12T13:36:04;15.20;;;9.37;;
12950;SDS011;6540;50.858;7.232;2023-02-12T13:38:32;18.53;;;10.87;;
12950;SDS011;6540;50.858;7.232;2023-02-12T13:41:06;13.83;;;10.00;;
12950;SDS011;6540;50.858;7.232;2023-02-12T13:52:22;17.17;;;10.20;;
12950;SDS011;6540;50.858;7.232;2023-02-12T13:57:28;14.03;;;8.23;;
12950;SDS011;6540;50.858;7.232;2023-02-12T13:59:57;9.33;;;6.97;;
12950;SDS011;6540;50.858;7.232;2023-02-12T14:04:59;12.97;;;7.13;;
12950;SDS011;6540;50.858;7.232;2023-02-12T14:07:41;11.57;;;7.40;;
12950;SDS011;6540;50.858;7.232;2023-02-12T14:10:07;14.17;;;7.77;;
12950;SDS011;6540;50.858;7.232;2023-02-12T14:12:47;13.03;;;7.90;;
12950;SDS011;6540;50.858;7.232;2023-02-12T14:15:56;14.47;;;7.77;;
12950;SDS011;6540;50.858;7.232;2023-02-12T14:18:24;12.73;;;7.77;;
12950;SDS011;6540;50.858;7.232;2023-02-12T14:21:32;14.17;;;8.30;;
12950;SDS011;6540;50.858;7.232;2023-02-12T14:23:43;12.23;;;7.73;;
12950;SDS011;6540;50.858;7.232;2023-02-12T14:26:15;12.27;;;6.87;;
12950;SDS011;6540;50.858;7.232;2023-02-12T14:33:43;11.93;;;7.70;;
12950;SDS011;6540;50.858;7.232;2023-02-12T14:39:00;12.10;;;6.87;;
12950;SDS011;6540;50.858;7.232;2023-02-12T14:41:47;12.33;;;6.60;;
12950;SDS011;6540;50.858;7.232;2023-02-12T14:52:13;10.07;;;6.83;;
12950;SDS011;6540;50.858;7.232;2023-02-12T14:54:46;9.93;;;6.83;;
12950;SDS011;6540;50.858;7.232;2023-02-12T14:57:27;9.50;;;6.00;;
12950;SDS011;6540;50.858;7.232;2023-02-12T14:59:59;10.83;;;6.67;;
12950;SDS011;6540;50.858;7.232;2023-02-12T15:02:50;11.60;;;6.23;;
12950;SDS011;6540;50.858;7.232;2023-02-12T15:05:31;10.80;;;7.10;;
12950;SDS011;6540;50.858;7.232;2023-02-12T15:08:49;10.70;;;7.27;;
12950;SDS011;6540;50.858;7.232;2023-02-12T15:10:55;10.83;;;6.30;;
12950;SDS011;6540;50.858;7.232;2023-02-12T15:13:29;10.60;;;6.47;;
12950;SDS011;6540;50.858;7.232;2023-02-12T15:16:21;11.47;;;7.10;;
12950;SDS011;6540;50.858;7.232;2023-02-12T15:21:30;9.47;;;6.47;;
12950;SDS011;6540;50.858;7.232;2023-02-12T15:26:38;8.57;;;6.30;;
12950;SDS011;6540;50.858;7.232;2023-02-12T15:29:30;9.67;;;6.20;;
12950;SDS011;6540;50.858;7.232;2023-02-12T15:32:05;10.13;;;6.63;;
12950;SDS011;6540;50.858;7.232;2023-02-12T15:34:35;9.33;;;6.67;;
12950;SDS011;6540;50.858;7.232;2023-02-12T15:37:04;9.80;;;6.93;;
12950;SDS011;6540;50.858;7.232;2023-02-12T15:39:36;9.33;;;6.27;;
12950;SDS011;6540;50.858;7.232;2023-02-12T15:47:40;9.73;;;5.97;;
12950;SDS011;6540;50.858;7.232;2023-02-12T15:50:13;11.23;;;6.57;;
12950;SDS011;6540;50.858;7.232;2023-02-12T15:52:40;13.63;;;7.13;;
12950;SDS011;6540;50.858;7.232;2023-02-12T15:58:13;15.30;;;8.00;;
12950;SDS011;6540;50.858;7.232;2023-02-12T16:00:48;10.77;;;6.63;;
12950;SDS011;6540;50.858;7.232;2023-02-12T16:03:19;11.77;;;7.10;;
12950;SDS011;6540;50.858;7.232;2023-02-12T16:05:45;9.80;;;7.10;;
12950;SDS011;6540;50.858;7.232;2023-02-12T16:08:13;10.77;;;7.97;;
12950;SDS011;6540;50.858;7.232;2023-02-12T16:10:41;12.90;;;8.03;;
12950;SDS011;6540;50.858;7.232;2023-02-12T16:13:13;17.10;;;9.23;;
12950;SDS011;6540;50.858;7.232;2023-02-12T16:18:31;12.87;;;8.27;;
12950;SDS011;6540;50.858;7.232;2023-02-12T16:21:13;11.53;;;7.90;;
12950;SDS011;6540;50.858;7.232;2023-02-12T16:23:45;13.53;;;8.97;;
12950;SDS011;6540;50.858;7.232;2023-02-12T16:26:30;12.40;;;7.77;;
12950;SDS011;6540;50.858;7.232;2023-02-12T16:28:56;9.70;;;7.50;;
12950;SDS011;6540;50.858;7.232;2023-02-12T16:31:22;12.30;;;7.73;;
12950;SDS011;6540;50.858;7.232;2023-02-12T16:33:52;16.83;;;8.80;;
12950;SDS011;6540;50.858;7.232;2023-02-12T16:38:55;12.90;;;7.90;;
12950;SDS011;6540;50.858;7.232;2023-02-12T16:41:22;12.30;;;6.63;;
12950;SDS011;6540;50.858;7.232;2023-02-12T16:46:46;12.97;;;7.80;;
12950;SDS011;6540;50.858;7.232;2023-02-12T16:49:17;16.23;;;10.00;;
12950;SDS011;6540;50.858;7.232;2023-02-12T16:51:44;11.50;;;8.13;;
12950;SDS011;6540;50.858;7.232;2023-02-12T16:54:32;13.00;;;7.33;;
12950;SDS011;6540;50.858;7.232;2023-02-12T16:56:58;13.20;;;7.40;;
12950;SDS011;6540;50.858;7.232;2023-02-12T16:59:24;14.17;;;8.47;;
12950;SDS011;6540;50.858;7.232;2023-02-12T17:02:00;12.50;;;7.10;;
12950;SDS011;6540;50.858;7.232;2023-02-12T17:04:28;9.87;;;6.87;;
12950;SDS011;6540;50.858;7.232;2023-02-12T17:06:53;15.47;;;7.33;;
12950;SDS011;6540;50.858;7.232;2023-02-12T17:09:19;11.60;;;6.73;;
12950;SDS011;6540;50.858;7.232;2023-02-12T17:11:44;10.73;;;7.07;;
12950;SDS011;6540;50.858;7.232;2023-02-12T17:14:14;13.47;;;7.70;;
12950;SDS011;6540;50.858;7.232;2023-02-12T17:16:41;13.97;;;8.83;;
12950;SDS011;6540;50.858;7.232;2023-02-12T17:19:07;11.67;;;7.20;;
12950;SDS011;6540;50.858;7.232;2023-02-12T17:21:33;13.67;;;8.13;;
12950;SDS011;6540;50.858;7.232;2023-02-12T17:26:50;8.10;;;6.40;;
12950;SDS011;6540;50.858;7.232;2023-02-12T17:29:19;9.23;;;6.70;;
12950;SDS011;6540;50.858;7.232;2023-02-12T17:31:47;10.83;;;6.67;;
12950;SDS011;6540;50.858;7.232;2023-02-12T17:34:12;11.63;;;7.43;;
12950;SDS011;6540;50.858;7.232;2023-02-12T17:36:38;11.23;;;7.63;;
12950;SDS011;6540;50.858;7.232;2023-02-12T17:39:05;10.27;;;6.30;;
12950;SDS011;6540;50.858;7.232;2023-02-12T17:41:32;11.37;;;6.70;;
12950;SDS011;6540;50.858;7.232;2023-02-12T17:43:58;9.37;;;7.03;;
12950;SDS011;6540;50.858;7.232;2023-02-12T17:46:24;11.00;;;7.40;;
12950;SDS011;6540;50.858;7.232;2023-02-12T17:48:52;13.37;;;7.90;;
12950;SDS011;6540;50.858;7.232;2023-02-12T17:51:18;14.03;;;8.67;;
12950;SDS011;6540;50.858;7.232;2023-02-12T17:53:44;12.87;;;7.43;;
12950;SDS011;6540;50.858;7.232;2023-02-12T17:56:13;11.27;;;5.93;;
12950;SDS011;6540;50.858;7.232;2023-02-12T17:58:41;8.00;;;6.10;;
12950;SDS011;6540;50.858;7.232;2023-02-12T18:01:07;9.43;;;6.30;;
12950;SDS011;6540;50.858;7.232;2023-02-12T18:03:35;10.03;;;6.23;;
12950;SDS011;6540;50.858;7.232;2023-02-12T18:06:00;11.83;;;6.70;;
12950;SDS011;6540;50.858;7.232;2023-02-12T18:08:26;10.30;;;5.63;;